sensor_id;sensor_type;location;lat;lon;timestamp;P1;durP1;ratioP1;P2;durP2;ratioP2
37781;SDS011;23621;50.878;4.584;2022-08-19T00:01:36;10.45;;;9.50;;
37781;SDS011;23621;50.878;4.584;2022-08-19T00:04:04;10.63;;;9.57;;
37781;SDS011;23621;50.878;4.584;2022-08-19T00:06:33;11.25;;;10.23;;
37781;SDS011;23621;50.878;4.584;2022-08-19T00:09:00;10.45;;;9.55;;
37781;SDS011;23621;50.878;4.584;2022-08-19T00:11:26;11.57;;;10.38;;
37781;SDS011;23621;50.878;4.584;2022-08-19T00:13:53;11.35;;;10.32;;
37781;SDS011;23621;50.878;4.584;2022-08-19T00:16:20;12.70;;;11.10;;
37781;SDS011;23621;50.878;4.584;2022-08-19T00:18:47;13.63;;;12.25;;
37781;SDS011;23621;50.878;4.584;2022-08-19T00:21:13;11.85;;;10.82;;
37781;SDS011;23621;50.878;4.584;2022-08-19T00:23:39;13.73;;;12.43;;
37781;SDS011;23621;50.878;4.584;2022-08-19T00:26:06;13.02;;;11.82;;
37781;SDS011;23621;50.878;4.584;2022-08-19T00:28:32;14.80;;;13.40;;
37781;SDS011;23621;50.878;4.584;2022-08-19T00:31:00;17.92;;;15.98;;
37781;SDS011;23621;50.878;4.584;2022-08-19T00:33:27;17.38;;;15.68;;
37781;SDS011;23621;50.878;4.584;2022-08-19T00:35:56;18.70;;;16.83;;
37781;SDS011;23621;50.878;4.584;2022-08-19T00:38:22;20.88;;;18.70;;
37781;SDS011;23621;50.878;4.584;2022-08-19T00:40:48;21.30;;;19.13;;
37781;SDS011;23621;50.878;4.584;2022-08-19T00:43:18;20.80;;;18.70;;
37781;SDS011;23621;50.878;4.584;2022-08-19T00:45:45;23.25;;;20.83;;
37781;SDS011;23621;50.878;4.584;2022-08-19T00:48:12;21.15;;;18.98;;
37781;SDS011;23621;50.878;4.584;2022-08-19T00:50:39;24.48;;;21.90;;
37781;SDS011;23621;50.878;4.584;2022-08-19T00:53:07;25.15;;;22.55;;
37781;SDS011;23621;50.878;4.584;2022-08-19T00:55:39;26.23;;;23.42;;
37781;SDS011;23621;50.878;4.584;2022-08-19T00:58:08;26.17;;;23.38;;
37781;SDS011;23621;50.878;4.584;2022-08-19T01:00:37;29.85;;;25.98;;
37781;SDS011;23621;50.878;4.584;2022-08-19T01:03:10;29.60;;;25.55;;
37781;SDS011;23621;50.878;4.584;2022-08-19T01:05:38;34.80;;;27.67;;
37781;SDS011;23621;50.878;4.584;2022-08-19T01:08:05;32.97;;;29.38;;
37781;SDS011;23621;50.878;4.584;2022-08-19T01:10:33;36.67;;;30.30;;
37781;SDS011;23621;50.878;4.584;2022-08-19T01:13:13;37.55;;;30.15;;
37781;SDS011;23621;50.878;4.584;2022-08-19T01:15:41;39.00;;;31.92;;
37781;SDS011;23621;50.878;4.584;2022-08-19T01:18:11;38.53;;;30.95;;
37781;SDS011;23621;50.878;4.584;2022-08-19T01:20:40;39.42;;;31.67;;
37781;SDS011;23621;50.878;4.584;2022-08-19T01:23:06;39.72;;;32.15;;
37781;SDS011;23621;50.878;4.584;2022-08-19T01:25:38;41.45;;;31.65;;
37781;SDS011;23621;50.878;4.584;2022-08-19T01:28:14;40.20;;;31.50;;
37781;SDS011;23621;50.878;4.584;2022-08-19T01:30:43;40.28;;;31.45;;
37781;SDS011;23621;50.878;4.584;2022-08-19T01:33:09;38.42;;;31.33;;
37781;SDS011;23621;50.878;4.584;2022-08-19T01:35:35;40.40;;;32.95;;
37781;SDS011;23621;50.878;4.584;2022-08-19T01:38:05;38.72;;;31.30;;
37781;SDS011;23621;50.878;4.584;2022-08-19T01:40:34;39.58;;;32.42;;
37781;SDS011;23621;50.878;4.584;2022-08-19T01:43:03;42.00;;;32.53;;
37781;SDS011;23621;50.878;4.584;2022-08-19T01:45:30;42.42;;;32.33;;
37781;SDS011;23621;50.878;4.584;2022-08-19T01:47:59;38.58;;;32.50;;
37781;SDS011;23621;50.878;4.584;2022-08-19T01:50:25;41.03;;;32.70;;
37781;SDS011;23621;50.878;4.584;2022-08-19T01:52:51;42.13;;;33.97;;
37781;SDS011;23621;50.878;4.584;2022-08-19T01:55:19;43.08;;;33.22;;
37781;SDS011;23621;50.878;4.584;2022-08-19T01:57:50;44.75;;;34.42;;
37781;SDS011;23621;50.878;4.584;2022-08-19T02:00:20;48.75;;;36.60;;
37781;SDS011;23621;50.878;4.584;2022-08-19T02:02:48;43.05;;;34.33;;
37781;SDS011;23621;50.878;4.584;2022-08-19T02:05:14;44.10;;;33.05;;
37781;SDS011;23621;50.878;4.584;2022-08-19T02:07:43;44.65;;;34.47;;
37781;SDS011;23621;50.878;4.584;2022-08-19T02:10:11;41.63;;;33.55;;
37781;SDS011;23621;50.878;4.584;2022-08-19T02:12:39;42.55;;;32.28;;
37781;SDS011;23621;50.878;4.584;2022-08-19T02:15:05;45.17;;;32.92;;
37781;SDS011;23621;50.878;4.584;2022-08-19T02:17:32;40.72;;;32.67;;
37781;SDS011;23621;50.878;4.584;2022-08-19T02:19:58;37.63;;;30.23;;
37781;SDS011;23621;50.878;4.584;2022-08-19T02:22:24;40.78;;;32.60;;
37781;SDS011;23621;50.878;4.584;2022-08-19T02:24:53;38.75;;;30.05;;
37781;SDS011;23621;50.878;4.584;2022-08-19T02:27:20;39.63;;;30.08;;
37781;SDS011;23621;50.878;4.584;2022-08-19T02:29:47;34.72;;;27.45;;
37781;SDS011;23621;50.878;4.584;2022-08-19T02:32:14;33.78;;;27.02;;
37781;SDS011;23621;50.878;4.584;2022-08-19T02:34:40;35.05;;;27.17;;
37781;SDS011;23621;50.878;4.584;2022-08-19T02:37:05;33.83;;;26.90;;
37781;SDS011;23621;50.878;4.584;2022-08-19T02:39:51;34.15;;;26.95;;
37781;SDS011;23621;50.878;4.584;2022-08-19T02:42:17;34.38;;;28.02;;
37781;SDS011;23621;50.878;4.584;2022-08-19T02:44:42;30.60;;;25.65;;
37781;SDS011;23621;50.878;4.584;2022-08-19T02:47:09;32.50;;;26.60;;
37781;SDS011;23621;50.878;4.584;2022-08-19T02:49:35;33.35;;;26.70;;
37781;SDS011;23621;50.878;4.584;2022-08-19T02:52:00;31.48;;;25.98;;
37781;SDS011;23621;50.878;4.584;2022-08-19T02:54:26;31.58;;;25.05;;
37781;SDS011;23621;50.878;4.584;2022-08-19T02:56:52;32.92;;;25.33;;
37781;SDS011;23621;50.878;4.584;2022-08-19T02:59:18;30.45;;;23.92;;
37781;SDS011;23621;50.878;4.584;2022-08-19T03:01:44;30.20;;;24.25;;
37781;SDS011;23621;50.878;4.584;2022-08-19T03:04:11;23.63;;;21.00;;
37781;SDS011;23621;50.878;4.584;2022-08-19T03:06:41;23.20;;;20.52;;
37781;SDS011;23621;50.878;4.584;2022-08-19T03:09:08;23.85;;;20.10;;
37781;SDS011;23621;50.878;4.584;2022-08-19T03:11:34;25.77;;;22.17;;
37781;SDS011;23621;50.878;4.584;2022-08-19T03:14:00;25.30;;;21.05;;
37781;SDS011;23621;50.878;4.584;2022-08-19T03:16:28;22.88;;;20.33;;
37781;SDS011;23621;50.878;4.584;2022-08-19T03:18:56;22.77;;;20.38;;
37781;SDS011;23621;50.878;4.584;2022-08-19T03:21:25;24.33;;;20.30;;
37781;SDS011;23621;50.878;4.584;2022-08-19T03:23:56;21.40;;;19.10;;
37781;SDS011;23621;50.878;4.584;2022-08-19T03:26:24;22.15;;;18.58;;
37781;SDS011;23621;50.878;4.584;2022-08-19T03:28:49;23.35;;;19.50;;
37781;SDS011;23621;50.878;4.584;2022-08-19T03:31:16;21.92;;;18.35;;
37781;SDS011;23621;50.878;4.584;2022-08-19T03:33:47;22.30;;;19.13;;
37781;SDS011;23621;50.878;4.584;2022-08-19T03:36:23;24.33;;;19.02;;
37781;SDS011;23621;50.878;4.584;2022-08-19T03:38:52;22.98;;;19.52;;
37781;SDS011;23621;50.878;4.584;2022-08-19T03:41:23;21.05;;;18.33;;
37781;SDS011;23621;50.878;4.584;2022-08-19T03:43:51;23.13;;;18.73;;
37781;SDS011;23621;50.878;4.584;2022-08-19T03:46:28;22.23;;;19.42;;
37781;SDS011;23621;50.878;4.584;2022-08-19T03:48:56;21.05;;;17.58;;
37781;SDS011;23621;50.878;4.584;2022-08-19T03:51:27;22.48;;;19.80;;
37781;SDS011;23621;50.878;4.584;2022-08-19T03:53:56;20.48;;;18.27;;
37781;SDS011;23621;50.878;4.584;2022-08-19T03:56:23;20.55;;;18.25;;
37781;SDS011;23621;50.878;4.584;2022-08-19T03:58:53;23.38;;;19.15;;
37781;SDS011;23621;50.878;4.584;2022-08-19T04:01:24;23.15;;;18.95;;
37781;SDS011;23621;50.878;4.584;2022-08-19T04:03:51;20.65;;;18.27;;
37781;SDS011;23621;50.878;4.584;2022-08-19T04:06:23;20.35;;;17.95;;
37781;SDS011;23621;50.878;4.584;2022-08-19T04:08:55;23.75;;;18.23;;
37781;SDS011;23621;50.878;4.584;2022-08-19T04:11:24;20.38;;;17.00;;
37781;SDS011;23621;50.878;4.584;2022-08-19T04:13:52;18.42;;;16.30;;
37781;SDS011;23621;50.878;4.584;2022-08-19T04:16:19;20.10;;;16.95;;
37781;SDS011;23621;50.878;4.584;2022-08-19T04:18:46;18.20;;;16.17;;
37781;SDS011;23621;50.878;4.584;2022-08-19T04:21:20;18.33;;;15.65;;
37781;SDS011;23621;50.878;4.584;2022-08-19T04:23:47;17.48;;;14.55;;
37781;SDS011;23621;50.878;4.584;2022-08-19T04:26:17;18.55;;;14.90;;
37781;SDS011;23621;50.878;4.584;2022-08-19T04:28:44;19.38;;;14.82;;
37781;SDS011;23621;50.878;4.584;2022-08-19T04:31:18;17.00;;;14.10;;
37781;SDS011;23621;50.878;4.584;2022-08-19T04:33:46;18.95;;;14.68;;
37781;SDS011;23621;50.878;4.584;2022-08-19T04:36:16;19.98;;;15.10;;
37781;SDS011;23621;50.878;4.584;2022-08-19T04:38:45;15.95;;;13.98;;
37781;SDS011;23621;50.878;4.584;2022-08-19T04:41:11;19.73;;;14.85;;
37781;SDS011;23621;50.878;4.584;2022-08-19T04:43:56;17.95;;;15.40;;
37781;SDS011;23621;50.878;4.584;2022-08-19T04:46:21;19.77;;;15.00;;
37781;SDS011;23621;50.878;4.584;2022-08-19T04:48:47;20.67;;;15.13;;
37781;SDS011;23621;50.878;4.584;2022-08-19T04:51:13;16.55;;;14.75;;
37781;SDS011;23621;50.878;4.584;2022-08-19T04:53:39;19.42;;;15.05;;
37781;SDS011;23621;50.878;4.584;2022-08-19T04:56:07;21.10;;;14.73;;
37781;SDS011;23621;50.878;4.584;2022-08-19T04:58:38;18.08;;;14.60;;
37781;SDS011;23621;50.878;4.584;2022-08-19T05:01:06;19.25;;;14.98;;
37781;SDS011;23621;50.878;4.584;2022-08-19T05:03:33;19.95;;;15.15;;
37781;SDS011;23621;50.878;4.584;2022-08-19T05:06:06;21.00;;;15.63;;
37781;SDS011;23621;50.878;4.584;2022-08-19T05:08:34;21.67;;;16.08;;
37781;SDS011;23621;50.878;4.584;2022-08-19T05:11:01;18.55;;;16.08;;
37781;SDS011;23621;50.878;4.584;2022-08-19T05:13:32;21.20;;;15.88;;
37781;SDS011;23621;50.878;4.584;2022-08-19T05:15:58;18.40;;;15.18;;
37781;SDS011;23621;50.878;4.584;2022-08-19T05:18:25;20.70;;;14.63;;
37781;SDS011;23621;50.878;4.584;2022-08-19T05:21:17;16.63;;;13.82;;
37781;SDS011;23621;50.878;4.584;2022-08-19T05:24:04;16.92;;;14.07;;
37781;SDS011;23621;50.878;4.584;2022-08-19T05:26:37;17.85;;;15.38;;
37781;SDS011;23621;50.878;4.584;2022-08-19T05:29:04;16.83;;;12.85;;
37781;SDS011;23621;50.878;4.584;2022-08-19T05:31:32;16.30;;;13.48;;
37781;SDS011;23621;50.878;4.584;2022-08-19T05:33:58;17.10;;;14.02;;
37781;SDS011;23621;50.878;4.584;2022-08-19T05:36:27;18.13;;;13.95;;
37781;SDS011;23621;50.878;4.584;2022-08-19T05:38:59;18.52;;;14.25;;
37781;SDS011;23621;50.878;4.584;2022-08-19T05:41:25;15.30;;;13.60;;
37781;SDS011;23621;50.878;4.584;2022-08-19T05:44:00;19.05;;;14.63;;
37781;SDS011;23621;50.878;4.584;2022-08-19T05:46:27;18.15;;;14.60;;
37781;SDS011;23621;50.878;4.584;2022-08-19T05:48:53;18.40;;;14.05;;
37781;SDS011;23621;50.878;4.584;2022-08-19T05:51:21;20.27;;;14.77;;
37781;SDS011;23621;50.878;4.584;2022-08-19T05:53:47;19.15;;;14.85;;
37781;SDS011;23621;50.878;4.584;2022-08-19T05:56:15;18.95;;;15.20;;
37781;SDS011;23621;50.878;4.584;2022-08-19T05:58:43;21.15;;;15.40;;
37781;SDS011;23621;50.878;4.584;2022-08-19T06:01:14;19.70;;;15.18;;
37781;SDS011;23621;50.878;4.584;2022-08-19T06:03:43;17.25;;;13.85;;
37781;SDS011;23621;50.878;4.584;2022-08-19T06:06:10;17.45;;;14.43;;
37781;SDS011;23621;50.878;4.584;2022-08-19T06:08:38;18.27;;;13.85;;
37781;SDS011;23621;50.878;4.584;2022-08-19T06:13:50;16.92;;;13.40;;
37781;SDS011;23621;50.878;4.584;2022-08-19T06:16:20;16.50;;;13.60;;
37781;SDS011;23621;50.878;4.584;2022-08-19T06:18:50;15.77;;;13.23;;
37781;SDS011;23621;50.878;4.584;2022-08-19T06:21:22;15.68;;;12.57;;
37781;SDS011;23621;50.878;4.584;2022-08-19T06:23:50;14.27;;;12.45;;
37781;SDS011;23621;50.878;4.584;2022-08-19T06:26:16;15.05;;;11.48;;
37781;SDS011;23621;50.878;4.584;2022-08-19T06:28:43;18.60;;;12.80;;
37781;SDS011;23621;50.878;4.584;2022-08-19T06:31:27;15.23;;;11.15;;
37781;SDS011;23621;50.878;4.584;2022-08-19T06:33:54;15.88;;;11.93;;
37781;SDS011;23621;50.878;4.584;2022-08-19T06:36:25;15.43;;;11.02;;
37781;SDS011;23621;50.878;4.584;2022-08-19T06:38:57;12.82;;;10.60;;
37781;SDS011;23621;50.878;4.584;2022-08-19T06:41:24;13.57;;;9.88;;
37781;SDS011;23621;50.878;4.584;2022-08-19T06:43:50;11.50;;;9.45;;
37781;SDS011;23621;50.878;4.584;2022-08-19T06:46:17;11.20;;;9.13;;
37781;SDS011;23621;50.878;4.584;2022-08-19T06:48:44;12.88;;;9.43;;
37781;SDS011;23621;50.878;4.584;2022-08-19T06:51:12;11.20;;;8.95;;
37781;SDS011;23621;50.878;4.584;2022-08-19T06:53:40;11.15;;;8.73;;
37781;SDS011;23621;50.878;4.584;2022-08-19T06:56:12;11.02;;;8.52;;
37781;SDS011;23621;50.878;4.584;2022-08-19T06:58:39;12.70;;;8.20;;
37781;SDS011;23621;50.878;4.584;2022-08-19T07:01:05;11.48;;;8.75;;
37781;SDS011;23621;50.878;4.584;2022-08-19T07:03:31;10.30;;;8.23;;
37781;SDS011;23621;50.878;4.584;2022-08-19T07:06:03;11.70;;;7.55;;
37781;SDS011;23621;50.878;4.584;2022-08-19T07:08:30;12.25;;;8.38;;
37781;SDS011;23621;50.878;4.584;2022-08-19T07:10:57;10.05;;;8.13;;
37781;SDS011;23621;50.878;4.584;2022-08-19T07:13:22;11.77;;;7.03;;
37781;SDS011;23621;50.878;4.584;2022-08-19T07:15:49;9.40;;;7.55;;
37781;SDS011;23621;50.878;4.584;2022-08-19T07:18:16;9.93;;;7.43;;
37781;SDS011;23621;50.878;4.584;2022-08-19T07:20:45;11.77;;;6.95;;
37781;SDS011;23621;50.878;4.584;2022-08-19T07:23:10;10.77;;;7.25;;
37781;SDS011;23621;50.878;4.584;2022-08-19T07:25:37;8.30;;;6.57;;
37781;SDS011;23621;50.878;4.584;2022-08-19T07:28:03;6.55;;;5.93;;
37781;SDS011;23621;50.878;4.584;2022-08-19T07:30:29;8.50;;;6.20;;
37781;SDS011;23621;50.878;4.584;2022-08-19T07:32:56;7.00;;;6.07;;
37781;SDS011;23621;50.878;4.584;2022-08-19T07:35:22;7.30;;;5.45;;
37781;SDS011;23621;50.878;4.584;2022-08-19T07:37:48;6.75;;;5.28;;
37781;SDS011;23621;50.878;4.584;2022-08-19T07:40:14;8.90;;;6.10;;
37781;SDS011;23621;50.878;4.584;2022-08-19T07:42:40;7.28;;;6.50;;
37781;SDS011;23621;50.878;4.584;2022-08-19T07:45:08;8.15;;;5.93;;
37781;SDS011;23621;50.878;4.584;2022-08-19T07:47:34;7.85;;;5.63;;
37781;SDS011;23621;50.878;4.584;2022-08-19T07:50:00;5.80;;;5.18;;
37781;SDS011;23621;50.878;4.584;2022-08-19T07:52:29;7.28;;;5.65;;
37781;SDS011;23621;50.878;4.584;2022-08-19T07:54:55;7.75;;;6.00;;
37781;SDS011;23621;50.878;4.584;2022-08-19T07:57:20;9.52;;;6.15;;
37781;SDS011;23621;50.878;4.584;2022-08-19T07:59:46;10.40;;;6.10;;
37781;SDS011;23621;50.878;4.584;2022-08-19T08:02:12;8.70;;;5.95;;
37781;SDS011;23621;50.878;4.584;2022-08-19T08:04:37;8.77;;;6.55;;
37781;SDS011;23621;50.878;4.584;2022-08-19T08:07:22;7.78;;;5.82;;
37781;SDS011;23621;50.878;4.584;2022-08-19T08:10:06;6.93;;;5.72;;
37781;SDS011;23621;50.878;4.584;2022-08-19T08:12:34;9.00;;;5.80;;
37781;SDS011;23621;50.878;4.584;2022-08-19T08:15:07;6.88;;;5.53;;
37781;SDS011;23621;50.878;4.584;2022-08-19T08:17:41;6.97;;;5.70;;
37781;SDS011;23621;50.878;4.584;2022-08-19T08:20:07;11.20;;;5.80;;
37781;SDS011;23621;50.878;4.584;2022-08-19T08:22:34;8.07;;;5.65;;
37781;SDS011;23621;50.878;4.584;2022-08-19T08:25:21;7.80;;;5.97;;
37781;SDS011;23621;50.878;4.584;2022-08-19T08:27:48;8.07;;;6.15;;
37781;SDS011;23621;50.878;4.584;2022-08-19T08:30:22;10.55;;;6.00;;
37781;SDS011;23621;50.878;4.584;2022-08-19T08:32:50;7.57;;;5.40;;
37781;SDS011;23621;50.878;4.584;2022-08-19T08:35:17;7.43;;;5.30;;
37781;SDS011;23621;50.878;4.584;2022-08-19T08:37:47;5.35;;;4.80;;
37781;SDS011;23621;50.878;4.584;2022-08-19T08:43:22;5.95;;;4.90;;
37781;SDS011;23621;50.878;4.584;2022-08-19T08:48:36;6.72;;;5.43;;
37781;SDS011;23621;50.878;4.584;2022-08-19T08:51:18;5.80;;;4.70;;
37781;SDS011;23621;50.878;4.584;2022-08-19T08:53:49;6.75;;;5.10;;
37781;SDS011;23621;50.878;4.584;2022-08-19T08:56:19;5.88;;;4.65;;
37781;SDS011;23621;50.878;4.584;2022-08-19T08:58:54;7.18;;;4.85;;
37781;SDS011;23621;50.878;4.584;2022-08-19T09:01:21;6.38;;;4.90;;
37781;SDS011;23621;50.878;4.584;2022-08-19T09:03:47;5.03;;;4.60;;
37781;SDS011;23621;50.878;4.584;2022-08-19T09:06:25;5.40;;;4.40;;
37781;SDS011;23621;50.878;4.584;2022-08-19T09:09:09;5.05;;;3.90;;
37781;SDS011;23621;50.878;4.584;2022-08-19T09:11:54;4.90;;;4.03;;
37781;SDS011;23621;50.878;4.584;2022-08-19T09:17:18;5.72;;;4.35;;
37781;SDS011;23621;50.878;4.584;2022-08-19T09:22:23;4.65;;;4.07;;
37781;SDS011;23621;50.878;4.584;2022-08-19T09:24:49;5.30;;;4.10;;
37781;SDS011;23621;50.878;4.584;2022-08-19T09:27:20;6.15;;;4.40;;
37781;SDS011;23621;50.878;4.584;2022-08-19T09:29:49;6.47;;;4.20;;
37781;SDS011;23621;50.878;4.584;2022-08-19T09:32:15;5.53;;;4.18;;
37781;SDS011;23621;50.878;4.584;2022-08-19T09:34:43;5.78;;;4.32;;
37781;SDS011;23621;50.878;4.584;2022-08-19T09:37:08;5.13;;;4.15;;
37781;SDS011;23621;50.878;4.584;2022-08-19T09:39:34;5.13;;;4.22;;
37781;SDS011;23621;50.878;4.584;2022-08-19T09:42:00;4.68;;;4.25;;
37781;SDS011;23621;50.878;4.584;2022-08-19T09:44:28;6.53;;;4.70;;
37781;SDS011;23621;50.878;4.584;2022-08-19T09:46:54;5.10;;;4.60;;
37781;SDS011;23621;50.878;4.584;2022-08-19T09:49:21;6.40;;;4.30;;
37781;SDS011;23621;50.878;4.584;2022-08-19T09:51:50;5.28;;;4.78;;
37781;SDS011;23621;50.878;4.584;2022-08-19T09:54:20;7.40;;;4.93;;
37781;SDS011;23621;50.878;4.584;2022-08-19T09:56:46;6.32;;;4.65;;
37781;SDS011;23621;50.878;4.584;2022-08-19T09:59:12;5.82;;;4.57;;
37781;SDS011;23621;50.878;4.584;2022-08-19T10:01:37;6.28;;;4.40;;
37781;SDS011;23621;50.878;4.584;2022-08-19T10:04:04;4.75;;;4.28;;
37781;SDS011;23621;50.878;4.584;2022-08-19T10:06:33;5.70;;;4.47;;
37781;SDS011;23621;50.878;4.584;2022-08-19T10:09:02;5.22;;;4.00;;
37781;SDS011;23621;50.878;4.584;2022-08-19T10:11:31;4.95;;;3.78;;
37781;SDS011;23621;50.878;4.584;2022-08-19T10:13:56;7.32;;;4.00;;
37781;SDS011;23621;50.878;4.584;2022-08-19T10:16:22;4.88;;;4.22;;
37781;SDS011;23621;50.878;4.584;2022-08-19T10:18:49;5.22;;;4.55;;
37781;SDS011;23621;50.878;4.584;2022-08-19T10:21:17;4.45;;;4.05;;
37781;SDS011;23621;50.878;4.584;2022-08-19T10:23:44;6.57;;;4.10;;
37781;SDS011;23621;50.878;4.584;2022-08-19T10:26:16;6.22;;;4.18;;
37781;SDS011;23621;50.878;4.584;2022-08-19T10:28:47;5.00;;;4.35;;
37781;SDS011;23621;50.878;4.584;2022-08-19T10:31:14;6.72;;;4.07;;
37781;SDS011;23621;50.878;4.584;2022-08-19T10:33:44;5.72;;;4.13;;
37781;SDS011;23621;50.878;4.584;2022-08-19T10:36:12;4.90;;;4.00;;
37781;SDS011;23621;50.878;4.584;2022-08-19T10:38:49;5.70;;;4.03;;
37781;SDS011;23621;50.878;4.584;2022-08-19T10:41:18;6.07;;;4.03;;
37781;SDS011;23621;50.878;4.584;2022-08-19T10:43:47;4.95;;;3.85;;
37781;SDS011;23621;50.878;4.584;2022-08-19T10:46:15;6.35;;;3.72;;
37781;SDS011;23621;50.878;4.584;2022-08-19T10:48:41;4.85;;;3.65;;
37781;SDS011;23621;50.878;4.584;2022-08-19T10:51:08;3.45;;;3.15;;
37781;SDS011;23621;50.878;4.584;2022-08-19T10:53:54;3.50;;;3.20;;
37781;SDS011;23621;50.878;4.584;2022-08-19T10:56:21;4.35;;;3.60;;
37781;SDS011;23621;50.878;4.584;2022-08-19T10:59:05;4.25;;;3.10;;
37781;SDS011;23621;50.878;4.584;2022-08-19T11:01:32;4.60;;;3.10;;
37781;SDS011;23621;50.878;4.584;2022-08-19T11:04:02;3.45;;;3.17;;
37781;SDS011;23621;50.878;4.584;2022-08-19T11:06:31;4.35;;;3.20;;
37781;SDS011;23621;50.878;4.584;2022-08-19T11:08:57;4.47;;;3.40;;
37781;SDS011;23621;50.878;4.584;2022-08-19T11:11:24;133.63;;;20.27;;
37781;SDS011;23621;50.878;4.584;2022-08-19T11:13:51;161.60;;;21.65;;
37781;SDS011;23621;50.878;4.584;2022-08-19T11:16:21;114.80;;;15.55;;
37781;SDS011;23621;50.878;4.584;2022-08-19T11:18:49;25.15;;;6.07;;
37781;SDS011;23621;50.878;4.584;2022-08-19T11:21:24;4.00;;;3.60;;
37781;SDS011;23621;50.878;4.584;2022-08-19T11:23:59;19.02;;;5.25;;
37781;SDS011;23621;50.878;4.584;2022-08-19T11:26:28;102.85;;;17.02;;
37781;SDS011;23621;50.878;4.584;2022-08-19T11:28:55;274.17;;;35.00;;
37781;SDS011;23621;50.878;4.584;2022-08-19T11:31:23;149.18;;;23.52;;
37781;SDS011;23621;50.878;4.584;2022-08-19T11:34:00;45.15;;;10.05;;
37781;SDS011;23621;50.878;4.584;2022-08-19T11:36:28;12.75;;;5.68;;
37781;SDS011;23621;50.878;4.584;2022-08-19T11:38:54;13.80;;;5.43;;
37781;SDS011;23621;50.878;4.584;2022-08-19T11:41:21;9.32;;;4.63;;
37781;SDS011;23621;50.878;4.584;2022-08-19T11:43:48;7.45;;;5.20;;
37781;SDS011;23621;50.878;4.584;2022-08-19T11:46:15;12.15;;;5.20;;
37781;SDS011;23621;50.878;4.584;2022-08-19T11:48:41;6.50;;;5.15;;
37781;SDS011;23621;50.878;4.584;2022-08-19T11:51:09;10.02;;;5.40;;
37781;SDS011;23621;50.878;4.584;2022-08-19T11:53:38;9.93;;;5.78;;
37781;SDS011;23621;50.878;4.584;2022-08-19T11:56:04;15.43;;;6.97;;
37781;SDS011;23621;50.878;4.584;2022-08-19T11:58:31;6.32;;;5.72;;
37781;SDS011;23621;50.878;4.584;2022-08-19T12:00:57;6.40;;;5.15;;
37781;SDS011;23621;50.878;4.584;2022-08-19T12:03:23;10.02;;;5.78;;
37781;SDS011;23621;50.878;4.584;2022-08-19T12:05:49;6.93;;;6.03;;
37781;SDS011;23621;50.878;4.584;2022-08-19T12:08:15;10.15;;;6.65;;
37781;SDS011;23621;50.878;4.584;2022-08-19T12:10:41;18.00;;;7.22;;
37781;SDS011;23621;50.878;4.584;2022-08-19T12:13:09;8.32;;;6.30;;
37781;SDS011;23621;50.878;4.584;2022-08-19T12:15:36;8.18;;;6.88;;
37781;SDS011;23621;50.878;4.584;2022-08-19T12:18:03;42.25;;;9.70;;
37781;SDS011;23621;50.878;4.584;2022-08-19T12:20:29;22.02;;;8.13;;
37781;SDS011;23621;50.878;4.584;2022-08-19T12:22:55;15.18;;;7.97;;
37781;SDS011;23621;50.878;4.584;2022-08-19T12:25:20;7.47;;;6.30;;
37781;SDS011;23621;50.878;4.584;2022-08-19T12:27:46;6.95;;;5.78;;
37781;SDS011;23621;50.878;4.584;2022-08-19T12:30:13;7.10;;;6.40;;
37781;SDS011;23621;50.878;4.584;2022-08-19T12:32:39;6.68;;;6.05;;
37781;SDS011;23621;50.878;4.584;2022-08-19T12:35:06;6.53;;;5.93;;
37781;SDS011;23621;50.878;4.584;2022-08-19T12:37:32;6.90;;;6.30;;
37781;SDS011;23621;50.878;4.584;2022-08-19T12:39:57;6.90;;;6.30;;
37781;SDS011;23621;50.878;4.584;2022-08-19T12:42:23;6.35;;;5.75;;
37781;SDS011;23621;50.878;4.584;2022-08-19T12:44:49;6.88;;;6.28;;
37781;SDS011;23621;50.878;4.584;2022-08-19T12:47:16;6.07;;;5.55;;
37781;SDS011;23621;50.878;4.584;2022-08-19T12:49:42;5.03;;;4.60;;
37781;SDS011;23621;50.878;4.584;2022-08-19T12:52:09;5.03;;;4.63;;
37781;SDS011;23621;50.878;4.584;2022-08-19T12:54:35;5.30;;;4.80;;
37781;SDS011;23621;50.878;4.584;2022-08-19T12:57:05;5.35;;;4.85;;
37781;SDS011;23621;50.878;4.584;2022-08-19T12:59:33;5.25;;;4.65;;
37781;SDS011;23621;50.878;4.584;2022-08-19T13:01:59;4.95;;;4.32;;
37781;SDS011;23621;50.878;4.584;2022-08-19T13:04:25;5.95;;;4.78;;
37781;SDS011;23621;50.878;4.584;2022-08-19T13:06:50;4.63;;;4.22;;
37781;SDS011;23621;50.878;4.584;2022-08-19T13:09:16;5.18;;;4.30;;
37781;SDS011;23621;50.878;4.584;2022-08-19T13:11:42;4.60;;;4.03;;
37781;SDS011;23621;50.878;4.584;2022-08-19T13:14:08;4.22;;;3.67;;
37781;SDS011;23621;50.878;4.584;2022-08-19T13:16:36;3.40;;;3.10;;
37781;SDS011;23621;50.878;4.584;2022-08-19T13:19:03;4.57;;;3.15;;
37781;SDS011;23621;50.878;4.584;2022-08-19T13:21:30;7.18;;;4.50;;
37781;SDS011;23621;50.878;4.584;2022-08-19T13:23:56;5.05;;;3.85;;
37781;SDS011;23621;50.878;4.584;2022-08-19T13:26:22;3.67;;;3.38;;
37781;SDS011;23621;50.878;4.584;2022-08-19T13:28:48;4.00;;;3.08;;
37781;SDS011;23621;50.878;4.584;2022-08-19T13:31:33;3.35;;;2.88;;
37781;SDS011;23621;50.878;4.584;2022-08-19T13:34:25;2.97;;;2.60;;
37781;SDS011;23621;50.878;4.584;2022-08-19T13:37:00;2.83;;;2.50;;
37781;SDS011;23621;50.878;4.584;2022-08-19T13:39:30;3.00;;;2.58;;
37781;SDS011;23621;50.878;4.584;2022-08-19T13:41:57;2.78;;;2.58;;
37781;SDS011;23621;50.878;4.584;2022-08-19T13:44:25;2.10;;;2.00;;
37781;SDS011;23621;50.878;4.584;2022-08-19T13:46:51;2.63;;;2.38;;
37781;SDS011;23621;50.878;4.584;2022-08-19T13:49:18;1.95;;;1.85;;
37781;SDS011;23621;50.878;4.584;2022-08-19T13:51:45;2.53;;;1.88;;
37781;SDS011;23621;50.878;4.584;2022-08-19T13:54:11;1.92;;;1.75;;
37781;SDS011;23621;50.878;4.584;2022-08-19T13:56:44;4.35;;;2.17;;
37781;SDS011;23621;50.878;4.584;2022-08-19T13:59:10;2.25;;;2.05;;
37781;SDS011;23621;50.878;4.584;2022-08-19T14:01:37;2.28;;;2.08;;
37781;SDS011;23621;50.878;4.584;2022-08-19T14:04:03;2.35;;;2.03;;
37781;SDS011;23621;50.878;4.584;2022-08-19T14:06:30;2.03;;;1.88;;
37781;SDS011;23621;50.878;4.584;2022-08-19T14:08:56;3.35;;;1.65;;
37781;SDS011;23621;50.878;4.584;2022-08-19T14:11:22;1.95;;;1.73;;
37781;SDS011;23621;50.878;4.584;2022-08-19T14:13:48;2.03;;;1.80;;
37781;SDS011;23621;50.878;4.584;2022-08-19T14:16:15;2.13;;;1.80;;
37781;SDS011;23621;50.878;4.584;2022-08-19T14:18:42;4.15;;;1.80;;
37781;SDS011;23621;50.878;4.584;2022-08-19T14:21:08;1.38;;;1.27;;
37781;SDS011;23621;50.878;4.584;2022-08-19T14:23:45;2.72;;;1.80;;
37781;SDS011;23621;50.878;4.584;2022-08-19T14:26:12;1.50;;;1.40;;
37781;SDS011;23621;50.878;4.584;2022-08-19T14:28:39;2.47;;;1.50;;
37781;SDS011;23621;50.878;4.584;2022-08-19T14:31:07;3.38;;;1.70;;
37781;SDS011;23621;50.878;4.584;2022-08-19T14:33:33;3.90;;;1.83;;
37781;SDS011;23621;50.878;4.584;2022-08-19T14:35:58;3.80;;;1.67;;
37781;SDS011;23621;50.878;4.584;2022-08-19T14:38:25;3.08;;;1.52;;
37781;SDS011;23621;50.878;4.584;2022-08-19T14:40:51;2.95;;;1.80;;
37781;SDS011;23621;50.878;4.584;2022-08-19T14:43:17;2.72;;;2.10;;
37781;SDS011;23621;50.878;4.584;2022-08-19T14:45:43;2.58;;;1.70;;
37781;SDS011;23621;50.878;4.584;2022-08-19T14:48:09;3.38;;;2.00;;
37781;SDS011;23621;50.878;4.584;2022-08-19T14:50:35;2.53;;;1.90;;
37781;SDS011;23621;50.878;4.584;2022-08-19T14:53:06;1.80;;;1.70;;
37781;SDS011;23621;50.878;4.584;2022-08-19T14:55:32;2.47;;;2.28;;